Terminal Aerodrome Forecast
Issued by NWS Greer, SC

Home | Current Version | Previous Version | Text Only | Print | Product List | Glossary On
Versions: 1 2 3 4 5 6 7 8 9 10 11 12 13 14 15 16 17 18 19 20 21 22 23 24 25 26 27 28 29 30 31 32 33 34 35 36
000
FTUS42 KGSP 281131
TAFAVL
TAF
KAVL 281131Z 2812/2912 VRB03KT 4SM BR BKN004 BKN010
      TEMPO 2812/2813 2SM BR OVC002
     FM281400 33003KT P6SM BKN040
     FM281800 23007KT P6SM FEW250
     FM290300 29004KT P6SM FEW250
     FM291000 33004KT 4SM BR FEW005 SCT250=

USA.gov is the U.S. government's official web portal to all federal, state and local government web resources and services.